Time;durP1;ratioP1;P1;durP2;ratioP2;P2;SDS_P1;SDS_P2;PMS_P1;PMS_P2;Temp;Humidity;BMP_temperature;BMP_pressure;BME280_temperature;BME280_humidity;BME280_pressure;Samples;Min_cycle;Max_cycle;Signal;HPM_P1;HPM_P2
2022/09/18 00:00:14;;;;;;;0.40;0.20;;;11.80;1.00;;;;;;5139172;27;20482;-73
2022/09/18 00:02:41;;;;;;;0.87;0.20;;;11.80;1.00;;;;;;5136558;27;20450;-73
2022/09/18 00:05:09;;;;;;;0.50;0.20;;;11.60;1.00;;;;;;5139650;27;20468;-73
2022/09/18 00:07:37;;;;;;;1.80;0.30;;;11.60;1.00;;;;;;5139579;27;20793;-74
2022/09/18 00:10:05;;;;;;;1.10;0.40;;;11.60;1.00;;;;;;5138711;27;20560;-72
2022/09/18 00:12:32;;;;;;;0.83;0.20;;;11.70;1.00;;;;;;5138782;27;20447;-73
2022/09/18 00:14:59;;;;;;;0.70;0.30;;;11.70;1.00;;;;;;5137672;27;20452;-73
2022/09/18 00:17:26;;;;;;;0.40;0.20;;;11.60;1.00;;;;;;5138973;27;20446;-73
2022/09/18 00:19:53;;;;;;;1.57;0.50;;;11.80;1.00;;;;;;5135829;27;20443;-72
2022/09/18 00:22:19;;;;;;;0.50;0.30;;;11.70;1.00;;;;;;5139654;27;20467;-73
2022/09/18 00:24:48;;;;;;;0.50;0.30;;;11.80;1.00;;;;;;5136281;27;20452;-72
2022/09/18 00:27:14;;;;;;;0.43;0.30;;;11.60;1.00;;;;;;5138293;27;20444;-73
2022/09/18 00:29:41;;;;;;;1.33;0.40;;;11.40;1.00;;;;;;5137099;27;20602;-72
2022/09/18 00:32:08;;;;;;;0.70;0.40;;;11.50;1.00;;;;;;5139353;27;20450;-72
2022/09/18 00:34:35;;;;;;;2.60;0.33;;;11.70;1.00;;;;;;5136825;27;20460;-73
2022/09/18 00:37:02;;;;;;;0.60;0.30;;;11.80;1.00;;;;;;5139025;27;20789;-72
2022/09/18 00:39:29;;;;;;;0.50;0.30;;;12.00;1.00;;;;;;5136457;27;20823;-72
2022/09/18 00:41:57;;;;;;;0.87;0.30;;;12.20;1.00;;;;;;5139013;27;20444;-73
2022/09/18 00:44:34;;;;;;;0.97;0.37;;;12.10;1.00;;;;;;5138386;27;20457;-73
2022/09/18 00:47:13;;;;;;;0.40;0.27;;;12.10;1.00;;;;;;5139662;27;20444;-73
2022/09/18 00:49:43;;;;;;;1.37;0.40;;;12.00;1.00;;;;;;5136262;27;20490;-72
2022/09/18 00:52:11;;;;;;;0.40;0.30;;;11.90;1.00;;;;;;5138639;27;20454;-73
2022/09/18 00:54:41;;;;;;;0.90;0.37;;;11.50;1.00;;;;;;5136104;27;20476;-73
2022/09/18 00:57:12;;;;;;;1.13;0.30;;;11.50;1.00;;;;;;5138154;27;20467;-72
2022/09/18 00:59:41;;;;;;;0.43;0.23;;;11.60;1.00;;;;;;5135736;27;20452;-73
2022/09/18 01:02:08;;;;;;;0.60;0.40;;;11.70;1.00;;;;;;5138185;27;20823;-71
2022/09/18 01:04:35;;;;;;;4.33;0.40;;;11.70;1.00;;;;;;5137935;27;20555;-71
2022/09/18 01:07:09;;;;;;;0.80;0.30;;;11.80;1.00;;;;;;5138133;27;20459;-72
2022/09/18 01:09:47;;;;;;;1.00;0.30;;;11.90;1.00;;;;;;5136022;28;20483;-72
2022/09/18 01:12:21;;;;;;;0.40;0.30;;;12.00;1.00;;;;;;5138471;27;20474;-72
2022/09/18 01:14:55;;;;;;;0.67;0.30;;;11.80;1.00;;;;;;5137896;28;20852;-72
2022/09/18 01:17:30;;;;;;;1.07;0.20;;;11.80;1.00;;;;;;5138466;28;20454;-75
2022/09/18 01:20:22;;;;;;;0.70;0.30;;;11.80;1.00;;;;;;5136854;28;20799;-74
2022/09/18 01:23:07;;;;;;;1.43;0.30;;;11.70;1.00;;;;;;5137220;28;20475;-74
2022/09/18 01:25:45;;;;;;;0.60;0.30;;;11.50;1.00;;;;;;5137790;28;20455;-73
2022/09/18 01:28:20;;;;;;;0.50;0.30;;;11.60;1.00;;;;;;5136893;28;20455;-72
2022/09/18 01:30:50;;;;;;;0.40;0.27;;;11.70;1.00;;;;;;5140329;27;20842;-72
2022/09/18 01:33:25;;;;;;;6.63;0.30;;;11.40;1.00;;;;;;5141324;27;20459;-72
2022/09/18 01:35:55;;;;;;;1.03;0.20;;;11.60;1.00;;;;;;5142589;27;20445;-72
2022/09/18 01:38:29;;;;;;;0.50;0.20;;;11.50;1.00;;;;;;5140847;27;20951;-73
2022/09/18 01:41:01;;;;;;;0.33;0.20;;;11.80;1.00;;;;;;5142636;27;20530;-72
2022/09/18 01:43:31;;;;;;;1.57;0.33;;;11.90;1.00;;;;;;5142578;27;20497;-73
2022/09/18 01:46:03;;;;;;;0.70;0.20;;;12.00;1.00;;;;;;5140690;27;20541;-72
2022/09/18 01:48:34;;;;;;;0.43;0.20;;;12.00;1.00;;;;;;5142164;27;20541;-73
2022/09/18 01:51:08;;;;;;;0.70;0.20;;;12.00;1.00;;;;;;5139094;27;20443;-73
2022/09/18 01:53:41;;;;;;;0.80;0.23;;;11.80;1.00;;;;;;5142042;27;20443;-73
2022/09/18 01:56:13;;;;;;;0.50;0.20;;;11.80;1.00;;;;;;5139299;27;20452;-72
2022/09/18 01:58:42;;;;;;;3.33;0.20;;;11.70;1.00;;;;;;5141211;27;20640;-73
2022/09/18 02:01:14;;;;;;;0.43;0.27;;;11.60;1.00;;;;;;5139070;27;20448;-72
2022/09/18 02:03:45;;;;;;;0.53;0.30;;;11.30;1.00;;;;;;5140708;27;20732;-73
2022/09/18 02:06:16;;;;;;;1.17;0.30;;;11.10;1.00;;;;;;5137802;27;20895;-73
2022/09/18 02:08:47;;;;;;;2.53;0.30;;;11.00;1.00;;;;;;5141536;27;20447;-73
2022/09/18 02:11:16;;;;;;;0.50;0.30;;;10.80;1.00;;;;;;5140108;27;20500;-73
2022/09/18 02:13:52;;;;;;;1.80;0.20;;;10.80;10.10;;;;;;5141902;27;20443;-73
2022/09/18 02:16:25;;;;;;;0.40;0.20;;;10.70;1.00;;;;;;5141043;27;20538;-72
2022/09/18 02:18:55;;;;;;;0.90;0.40;;;10.60;25.10;;;;;;5142068;27;20469;-72
2022/09/18 02:21:27;;;;;;;0.30;0.20;;;10.70;25.70;;;;;;5140006;27;20454;-73
2022/09/18 02:23:57;;;;;;;0.50;0.23;;;10.70;17.70;;;;;;5141714;27;20444;-73
2022/09/18 02:26:25;;;;;;;1.00;0.30;;;10.60;17.70;;;;;;5139703;27;20740;-73
2022/09/18 02:28:55;;;;;;;0.77;0.30;;;10.50;52.70;;;;;;5141494;27;20543;-74
2022/09/18 02:31:22;;;;;;;1.37;0.40;;;10.50;40.80;;;;;;5138383;27;20658;-74
2022/09/18 02:33:49;;;;;;;0.43;0.30;;;10.40;52.90;;;;;;5141787;27;20450;-72
2022/09/18 02:36:48;;;;;;;1.20;0.30;;;10.40;90.40;;;;;;5138897;27;20519;-72
2022/09/18 02:39:40;;;;;;;0.50;0.30;;;10.40;73.50;;;;;;5140704;27;20534;-73
2022/09/18 02:42:20;;;;;;;0.60;0.30;;;10.30;89.20;;;;;;5140414;27;20500;-74
2022/09/18 02:44:58;;;;;;;0.40;0.20;;;10.40;92.90;;;;;;5137448;27;20447;-74
2022/09/18 02:47:38;;;;;;;2.17;0.30;;;10.40;98.80;;;;;;5136438;27;20444;-74
2022/09/18 02:50:14;;;;;;;0.73;0.30;;;10.30;99.90;;;;;;5138833;27;20483;-73
2022/09/18 02:52:49;;;;;;;0.97;0.30;;;10.20;99.90;;;;;;5141248;27;20512;-73
2022/09/18 02:55:21;;;;;;;0.57;0.30;;;10.20;99.90;;;;;;5138260;27;20905;-73
2022/09/18 02:57:52;;;;;;;0.40;0.23;;;10.20;99.90;;;;;;5140276;27;20471;-73
2022/09/18 03:00:21;;;;;;;0.40;0.23;;;10.20;99.90;;;;;;5137689;27;20451;-74
2022/09/18 03:02:50;;;;;;;0.70;0.27;;;10.30;99.90;;;;;;5140255;27;20450;-73
2022/09/18 03:05:17;;;;;;;0.50;0.30;;;10.30;99.90;;;;;;5137622;27;20475;-73
2022/09/18 03:07:44;;;;;;;0.70;0.40;;;10.70;99.90;;;;;;5140690;27;20447;-74
2022/09/18 03:10:11;;;;;;;0.90;0.20;;;10.60;95.30;;;;;;5139460;27;20574;-73
2022/09/18 03:12:38;;;;;;;0.60;0.30;;;10.80;99.90;;;;;;5139832;27;20551;-73
2022/09/18 03:15:06;;;;;;;0.53;0.30;;;10.70;96.00;;;;;;5137612;27;20450;-74
2022/09/18 03:17:34;;;;;;;0.80;0.20;;;10.70;99.90;;;;;;5139963;27;20721;-73
2022/09/18 03:20:01;;;;;;;1.13;0.20;;;10.80;99.90;;;;;;5138031;27;20447;-73
2022/09/18 03:22:28;;;;;;;0.53;0.30;;;10.80;99.90;;;;;;5139976;27;20452;-72
2022/09/18 03:24:55;;;;;;;0.30;0.20;;;10.70;98.80;;;;;;5137965;27;20500;-72
2022/09/18 03:27:22;;;;;;;0.40;0.27;;;10.70;99.90;;;;;;5140396;27;20452;-72
2022/09/18 03:29:48;;;;;;;0.40;0.20;;;10.80;99.90;;;;;;5137372;27;20574;-72
2022/09/18 03:32:15;;;;;;;1.10;0.30;;;11.10;95.00;;;;;;5140001;27;20448;-73
2022/09/18 03:34:43;;;;;;;0.50;0.20;;;11.10;64.90;;;;;;5138069;27;20483;-72
2022/09/18 03:37:10;;;;;;;0.33;0.20;;;10.90;54.70;;;;;;5140321;27;20444;-73
2022/09/18 03:39:37;;;;;;;2.03;0.20;;;10.90;71.40;;;;;;5138650;27;20527;-73
2022/09/18 03:42:04;;;;;;;0.40;0.20;;;10.90;86.00;;;;;;5139852;27;20450;-73
2022/09/18 03:44:31;;;;;;;0.40;0.30;;;11.00;97.30;;;;;;5139708;27;20470;-72
2022/09/18 03:46:58;;;;;;;0.40;0.20;;;11.00;96.50;;;;;;5138169;27;20553;-73
2022/09/18 03:49:25;;;;;;;0.30;0.20;;;10.80;60.30;;;;;;5139959;27;20755;-72
2022/09/18 03:51:55;;;;;;;0.70;0.20;;;10.70;90.80;;;;;;5135983;27;20512;-74
2022/09/18 03:54:22;;;;;;;0.40;0.20;;;10.70;80.50;;;;;;5139944;27;20440;-73
2022/09/18 03:56:50;;;;;;;0.67;0.30;;;10.50;99.90;;;;;;5136734;27;20970;-72
2022/09/18 03:59:17;;;;;;;0.50;0.20;;;10.40;99.90;;;;;;5139194;27;20532;-73
2022/09/18 04:01:44;;;;;;;0.50;0.20;;;10.40;99.90;;;;;;5137124;27;20534;-72
2022/09/18 04:04:10;;;;;;;0.43;0.20;;;10.70;99.90;;;;;;5139589;27;20450;-72
2022/09/18 04:06:37;;;;;;;0.50;0.20;;;11.10;99.90;;;;;;5136435;27;20530;-73
2022/09/18 04:09:05;;;;;;;0.67;0.20;;;11.10;86.00;;;;;;5139050;27;20538;-73
2022/09/18 04:11:32;;;;;;;0.43;0.20;;;11.30;60.00;;;;;;5139407;27;20476;-74
2022/09/18 04:13:59;;;;;;;0.67;0.20;;;11.40;60.10;;;;;;5137788;27;20518;-73
2022/09/18 04:16:26;;;;;;;0.40;0.27;;;11.30;56.20;;;;;;5139113;27;20560;-73
2022/09/18 04:18:53;;;;;;;0.93;0.20;;;11.20;70.90;;;;;;5135378;27;20452;-73
2022/09/18 04:21:20;;;;;;;0.40;0.20;;;11.20;93.90;;;;;;5137854;27;20436;-73
2022/09/18 04:23:46;;;;;;;0.80;0.20;;;11.20;86.70;;;;;;5137078;27;20465;-72
2022/09/18 04:26:15;;;;;;;0.40;0.20;;;11.20;78.80;;;;;;5138457;27;20444;-72
2022/09/18 04:28:41;;;;;;;0.50;0.30;;;11.10;90.60;;;;;;5136197;27;20483;-73
2022/09/18 04:31:11;;;;;;;0.30;0.20;;;11.00;64.00;;;;;;5138052;27;20479;-73
2022/09/18 04:33:38;;;;;;;0.93;0.30;;;11.20;99.50;;;;;;5136637;27;20814;-73
2022/09/18 04:36:05;;;;;;;0.40;0.20;;;11.30;75.40;;;;;;5139269;27;21062;-73
2022/09/18 04:38:32;;;;;;;0.40;0.20;;;11.30;83.10;;;;;;5135448;27;20469;-72
2022/09/18 04:41:00;;;;;;;0.30;0.20;;;11.50;23.80;;;;;;5137910;27;20451;-72
2022/09/18 04:43:29;;;;;;;0.40;0.20;;;11.50;19.80;;;;;;5136270;27;20452;-73
2022/09/18 04:45:56;;;;;;;0.80;0.20;;;11.30;34.50;;;;;;5137822;27;20538;-73
2022/09/18 04:48:23;;;;;;;0.50;0.23;;;11.10;47.80;;;;;;5135356;27;20554;-72
2022/09/18 04:50:50;;;;;;;0.53;0.30;;;11.00;94.20;;;;;;5138125;27;20479;-73
2022/09/18 04:53:17;;;;;;;0.30;0.10;;;11.00;75.50;;;;;;5136761;27;20458;-73
2022/09/18 04:55:45;;;;;;;0.40;0.20;;;11.00;96.30;;;;;;5138439;27;20450;-73
2022/09/18 04:58:13;;;;;;;0.53;0.20;;;11.10;90.30;;;;;;5135785;27;20551;-73
2022/09/18 05:00:42;;;;;;;0.40;0.20;;;11.00;88.90;;;;;;5137167;27;20475;-73
2022/09/18 05:03:09;;;;;;;0.50;0.30;;;10.80;81.20;;;;;;5136275;27;20448;-73
2022/09/18 05:05:35;;;;;;;0.50;0.20;;;10.90;72.90;;;;;;5138008;27;20746;-72
2022/09/18 05:08:03;;;;;;;0.60;0.20;;;11.00;90.00;;;;;;5135768;27;20551;-73
2022/09/18 05:10:31;;;;;;;0.73;0.20;;;10.90;62.00;;;;;;5137272;27;20479;-73
2022/09/18 05:12:57;;;;;;;1.33;0.20;;;11.00;93.60;;;;;;5136365;28;20455;-73
2022/09/18 05:15:24;;;;;;;0.67;0.20;;;11.10;90.50;;;;;;5137269;28;20439;-72
2022/09/18 05:18:00;;;;;;;0.60;0.30;;;11.30;49.10;;;;;;5135001;28;20744;-72
2022/09/18 05:20:27;;;;;;;0.60;0.30;;;11.40;28.30;;;;;;5136754;28;20440;-73
2022/09/18 05:22:54;;;;;;;0.60;0.30;;;11.50;26.10;;;;;;5134090;28;20452;-73
2022/09/18 05:25:22;;;;;;;0.43;0.20;;;11.40;28.20;;;;;;5137267;28;20435;-73
2022/09/18 05:27:59;;;;;;;1.03;0.30;;;11.40;41.10;;;;;;5135276;28;20618;-73
2022/09/18 05:30:27;;;;;;;0.50;0.30;;;11.30;22.00;;;;;;5138025;28;20858;-74
2022/09/18 05:32:55;;;;;;;0.70;0.37;;;11.20;41.20;;;;;;5136301;28;20512;-73
2022/09/18 05:35:23;;;;;;;0.80;0.30;;;11.00;42.80;;;;;;5138214;28;20455;-73
2022/09/18 05:37:51;;;;;;;0.43;0.20;;;10.80;67.90;;;;;;5136156;28;20455;-73
2022/09/18 05:40:18;;;;;;;2.00;0.30;;;11.00;99.90;;;;;;5137865;28;20436;-73
2022/09/18 05:42:46;;;;;;;0.40;0.20;;;11.00;85.50;;;;;;5135946;28;20451;-73
2022/09/18 05:45:12;;;;;;;0.43;0.30;;;11.10;93.70;;;;;;5138410;28;20489;-73
2022/09/18 05:47:39;;;;;;;0.40;0.23;;;10.90;87.30;;;;;;5135379;28;20520;-73
2022/09/18 05:50:08;;;;;;;0.40;0.30;;;10.70;99.50;;;;;;5137434;28;20540;-73
2022/09/18 05:52:36;;;;;;;0.70;0.40;;;10.70;99.90;;;;;;5135356;27;20887;-73
2022/09/18 05:55:03;;;;;;;0.40;0.20;;;10.80;99.90;;;;;;5137770;28;20444;-73
2022/09/18 05:57:30;;;;;;;0.63;0.30;;;10.70;99.90;;;;;;5135874;28;20480;-73
2022/09/18 05:59:56;;;;;;;1.57;0.30;;;10.70;99.90;;;;;;5137108;28;20444;-73
2022/09/18 06:02:23;;;;;;;1.00;0.30;;;10.60;99.90;;;;;;5135786;28;20459;-73
2022/09/18 06:04:50;;;;;;;0.60;0.40;;;10.60;99.90;;;;;;5137693;28;20478;-73
2022/09/18 06:07:17;;;;;;;0.50;0.30;;;10.50;99.90;;;;;;5136624;28;20458;-73
2022/09/18 06:09:45;;;;;;;0.70;0.30;;;10.50;99.90;;;;;;5137945;27;20432;-72
2022/09/18 06:12:12;;;;;;;1.90;0.30;;;10.60;99.90;;;;;;5135436;28;20511;-72
2022/09/18 06:14:39;;;;;;;1.23;0.30;;;10.80;99.90;;;;;;5137711;28;20483;-73
2022/09/18 06:17:06;;;;;;;0.57;0.30;;;11.00;99.90;;;;;;5134207;27;20504;-73
2022/09/18 06:19:33;;;;;;;2.20;0.30;;;11.00;99.90;;;;;;5141125;27;20450;-73
2022/09/18 06:22:00;;;;;;;0.60;0.30;;;10.90;99.90;;;;;;5139011;27;20452;-73
2022/09/18 06:24:27;;;;;;;0.60;0.30;;;10.90;99.90;;;;;;5141618;27;20454;-73
2022/09/18 06:26:55;;;;;;;2.40;0.30;;;10.90;99.90;;;;;;5138887;27;20444;-73
2022/09/18 06:29:22;;;;;;;0.43;0.30;;;10.90;99.90;;;;;;5141276;27;20578;-73
2022/09/18 06:31:49;;;;;;;0.50;0.30;;;10.80;99.90;;;;;;5139227;27;20566;-73
2022/09/18 06:34:15;;;;;;;0.47;0.30;;;10.70;99.90;;;;;;5141082;27;20447;-73
2022/09/18 06:36:42;;;;;;;1.53;0.30;;;10.70;99.90;;;;;;5139157;27;20519;-73
2022/09/18 06:39:09;;;;;;;2.40;0.40;;;10.60;99.90;;;;;;5140761;27;20518;-75
2022/09/18 06:41:36;;;;;;;0.87;0.40;;;10.60;99.90;;;;;;5141199;27;20448;-74
2022/09/18 06:44:04;;;;;;;0.70;0.30;;;10.50;99.90;;;;;;5141167;27;20901;-74
2022/09/18 06:46:33;;;;;;;0.77;0.30;;;10.50;99.90;;;;;;5141322;27;20439;-73
2022/09/18 06:49:00;;;;;;;0.60;0.20;;;10.70;99.90;;;;;;5138459;27;20448;-73
2022/09/18 06:51:27;;;;;;;0.77;0.33;;;10.70;99.90;;;;;;5141250;27;20483;-73
2022/09/18 06:53:54;;;;;;;0.50;0.30;;;10.90;99.90;;;;;;5139150;27;20793;-74
2022/09/18 06:56:20;;;;;;;0.80;0.40;;;10.70;99.90;;;;;;5140366;27;20454;-73
2022/09/18 06:58:47;;;;;;;0.57;0.40;;;10.70;99.90;;;;;;5137981;27;20458;-72
2022/09/18 07:01:15;;;;;;;0.50;0.30;;;10.80;99.90;;;;;;5139580;27;20831;-74
2022/09/18 07:03:42;;;;;;;0.50;0.40;;;10.70;99.90;;;;;;5141103;27;20864;-74
2022/09/18 07:06:10;;;;;;;0.63;0.37;;;10.80;99.90;;;;;;5140875;27;20450;-73
2022/09/18 07:08:37;;;;;;;0.43;0.30;;;10.90;99.90;;;;;;5137503;27;20459;-74
2022/09/18 07:11:06;;;;;;;0.93;0.30;;;10.90;99.90;;;;;;5139584;27;20559;-73
2022/09/18 07:13:36;;;;;;;0.50;0.30;;;11.00;99.90;;;;;;5138063;27;20476;-74
2022/09/18 07:16:03;;;;;;;0.63;0.40;;;11.10;99.90;;;;;;5140377;27;20444;-73
2022/09/18 07:18:31;;;;;;;1.40;0.50;;;11.30;99.90;;;;;;5140639;27;20472;-73
2022/09/18 07:20:58;;;;;;;0.60;0.37;;;11.40;99.90;;;;;;5140325;27;20940;-73
2022/09/18 07:23:28;;;;;;;0.90;0.40;;;11.30;99.90;;;;;;5139626;27;20467;-73
2022/09/18 07:25:54;;;;;;;0.63;0.40;;;11.40;99.90;;;;;;5139837;27;20504;-74
2022/09/18 07:28:21;;;;;;;1.10;0.50;;;11.50;99.90;;;;;;5137276;27;20644;-74
2022/09/18 07:30:48;;;;;;;0.50;0.30;;;11.40;99.90;;;;;;5139990;27;21034;-73
2022/09/18 07:33:15;;;;;;;1.90;0.40;;;11.50;99.90;;;;;;5137692;27;20546;-74
2022/09/18 07:35:43;;;;;;;0.90;0.30;;;11.60;99.90;;;;;;5140436;27;20522;-73
2022/09/18 07:38:10;;;;;;;0.97;0.40;;;11.60;99.90;;;;;;5136705;27;20451;-75
2022/09/18 07:40:38;;;;;;;0.40;0.30;;;11.60;99.90;;;;;;5137841;27;20487;-74
2022/09/18 07:43:08;;;;;;;0.53;0.30;;;12.00;99.90;;;;;;5135569;27;20452;-74
2022/09/18 07:45:35;;;;;;;0.50;0.33;;;12.20;99.90;;;;;;5139583;27;20436;-72
2022/09/18 07:48:04;;;;;;;0.60;0.30;;;12.30;82.30;;;;;;5135724;27;20814;-72
2022/09/18 07:50:31;;;;;;;0.50;0.30;;;12.30;61.30;;;;;;5138900;27;20601;-72
2022/09/18 07:53:02;;;;;;;0.40;0.30;;;12.30;84.70;;;;;;5136313;27;20517;-72
2022/09/18 07:55:29;;;;;;;0.80;0.30;;;12.20;82.70;;;;;;5138875;27;20451;-73
2022/09/18 07:57:58;;;;;;;0.50;0.30;;;12.40;36.70;;;;;;5135587;27;20503;-73
2022/09/18 08:00:27;;;;;;;1.27;0.30;;;12.40;44.60;;;;;;5136805;27;20450;-73
2022/09/18 08:03:01;;;;;;;0.37;0.30;;;12.40;26.30;;;;;;5134333;27;20940;-72
2022/09/18 08:05:28;;;;;;;0.50;0.30;;;12.40;54.30;;;;;;5136470;27;20792;-73
2022/09/18 08:07:55;;;;;;;0.50;0.30;;;12.60;26.00;;;;;;5135291;27;20524;-72
2022/09/18 08:10:24;;;;;;;0.50;0.23;;;12.70;6.20;;;;;;5136378;27;20447;-72
2022/09/18 08:12:54;;;;;;;0.53;0.27;;;12.60;2.90;;;;;;5135695;27;20949;-72
2022/09/18 08:15:21;;;;;;;0.90;0.30;;;12.70;1.00;;;;;;5138241;27;20530;-73
2022/09/18 08:17:47;;;;;;;0.50;0.30;;;12.80;12.70;;;;;;5136350;27;20750;-74
2022/09/18 08:20:14;;;;;;;0.43;0.20;;;12.60;3.10;;;;;;5139099;27;20516;-74
2022/09/18 08:22:42;;;;;;;0.50;0.27;;;12.50;1.00;;;;;;5139137;27;20781;-74
2022/09/18 08:25:10;;;;;;;0.50;0.30;;;12.60;1.00;;;;;;5138679;27;20478;-73
2022/09/18 08:27:40;;;;;;;0.57;0.30;;;12.70;9.40;;;;;;5136144;27;20741;-73
2022/09/18 08:30:09;;;;;;;0.60;0.40;;;12.40;1.00;;;;;;5138959;27;20448;-72
2022/09/18 08:32:36;;;;;;;0.70;0.30;;;12.50;1.00;;;;;;5135614;27;20498;-72
2022/09/18 08:35:04;;;;;;;1.63;0.30;;;12.60;1.00;;;;;;5139499;27;20546;-72
2022/09/18 08:37:32;;;;;;;0.80;0.33;;;12.60;1.00;;;;;;5137287;27;20458;-73
2022/09/18 08:39:59;;;;;;;0.50;0.30;;;12.80;1.00;;;;;;5137956;27;20777;-72
2022/09/18 08:42:36;;;;;;;0.50;0.30;;;12.70;1.00;;;;;;5137105;27;20439;-73
2022/09/18 08:45:20;;;;;;;2.50;0.30;;;12.80;1.00;;;;;;5138927;27;20527;-72
2022/09/18 08:47:52;;;;;;;0.40;0.20;;;12.90;1.00;;;;;;5136551;27;20483;-72
2022/09/18 08:50:23;;;;;;;0.70;0.43;;;12.90;1.00;;;;;;5139662;27;20534;-71
2022/09/18 08:52:57;;;;;;;0.90;0.30;;;13.10;1.00;;;;;;5137076;27;20494;-73
2022/09/18 08:55:26;;;;;;;0.40;0.30;;;13.10;1.00;;;;;;5137906;27;20472;-72
2022/09/18 08:57:56;;;;;;;0.70;0.30;;;13.20;1.00;;;;;;5135051;27;20487;-75
2022/09/18 09:00:31;;;;;;;0.70;0.43;;;13.30;1.00;;;;;;5137680;27;20447;-73
2022/09/18 09:03:09;;;;;;;0.50;0.30;;;13.20;1.00;;;;;;5134895;27;20451;-71
2022/09/18 09:05:46;;;;;;;1.17;0.30;;;12.90;1.00;;;;;;5138297;27;20952;-76
2022/09/18 09:08:30;;;;;;;0.50;0.30;;;12.80;1.00;;;;;;5135309;27;20491;-72
2022/09/18 09:11:06;;;;;;;0.83;0.40;;;12.80;1.00;;;;;;5137639;27;20564;-72
2022/09/18 09:13:59;;;;;;;0.60;0.33;;;12.90;1.00;;;;;;5134037;27;20459;-72
2022/09/18 09:16:35;;;;;;;0.50;0.37;;;13.10;1.00;;;;;;5138475;28;20451;-72
2022/09/18 09:19:09;;;;;;;0.60;0.40;;;13.20;1.00;;;;;;5138525;28;20820;-72
2022/09/18 09:21:48;;;;;;;0.87;0.30;;;13.20;1.00;;;;;;5137940;28;20432;-71
2022/09/18 09:24:28;;;;;;;0.50;0.30;;;13.30;1.00;;;;;;5139210;28;20448;-72
2022/09/18 09:26:56;;;;;;;0.50;0.30;;;13.30;1.00;;;;;;5135785;28;20534;-72
2022/09/18 09:29:28;;;;;;;0.50;0.37;;;13.10;1.00;;;;;;5139389;28;20530;-73
2022/09/18 09:32:00;;;;;;;0.60;0.30;;;13.10;1.00;;;;;;5135646;28;21031;-73
2022/09/18 09:34:32;;;;;;;0.50;0.30;;;13.20;1.00;;;;;;5127525;28;20448;-73
2022/09/18 09:37:03;;;;;;;0.80;0.30;;;13.00;1.00;;;;;;5132376;28;20554;-73
2022/09/18 09:39:35;;;;;;;0.53;0.40;;;13.30;1.00;;;;;;5142921;28;20542;-74
2022/09/18 09:42:11;;;;;;;0.60;0.30;;;13.20;1.00;;;;;;5133846;28;20542;-73
2022/09/18 09:44:42;;;;;;;0.60;0.40;;;12.90;1.00;;;;;;5126615;28;20542;-73
2022/09/18 09:47:34;;;;;;;0.90;0.30;;;12.90;1.00;;;;;;5134508;28;20498;-74
2022/09/18 09:50:15;;;;;;;0.40;0.30;;;13.10;1.00;;;;;;5131130;28;20472;-72
2022/09/18 09:52:46;;;;;;;1.10;0.40;;;13.00;1.00;;;;;;5121464;27;20528;-71
2022/09/18 09:55:23;;;;;;;1.23;0.33;;;13.10;1.00;;;;;;5121296;28;20896;-72
2022/09/18 09:58:01;;;;;;;0.90;0.43;;;13.40;1.00;;;;;;5119374;27;20534;-72
2022/09/18 10:00:33;;;;;;;2.77;0.40;;;13.80;1.00;;;;;;5121638;28;20446;-71
2022/09/18 10:03:27;;;;;;;0.43;0.30;;;14.00;1.00;;;;;;5128932;27;20801;-72
2022/09/18 10:06:05;;;;;;;1.27;0.20;;;14.10;1.00;;;;;;5140631;27;20431;-71
2022/09/18 10:08:40;;;;;;;1.07;0.33;;;14.30;1.00;;;;;;5137952;27;20550;-72
2022/09/18 10:11:10;;;;;;;0.50;0.30;;;14.60;1.00;;;;;;5141271;27;20447;-72
2022/09/18 10:13:41;;;;;;;0.67;0.40;;;14.60;99.90;;;;;;5135615;27;20857;-72
2022/09/18 10:16:13;;;;;;;0.40;0.20;;;14.60;1.00;;;;;;5140130;27;20483;-72
2022/09/18 10:18:45;;;;;;;0.50;0.23;;;14.70;1.00;;;;;;5136340;27;20498;-72
2022/09/18 10:21:15;;;;;;;0.60;0.30;;;14.90;99.90;;;;;;5138613;27;20447;-71
2022/09/18 10:23:43;;;;;;;0.43;0.20;;;14.50;1.00;;;;;;5133695;27;20452;-73
2022/09/18 10:26:15;;;;;;;1.00;0.30;;;14.40;1.00;;;;;;5139714;27;20510;-74
2022/09/18 10:28:42;;;;;;;0.40;0.20;;;14.40;1.00;;;;;;5117567;27;20452;-72
2022/09/18 10:31:11;;;;;;;1.27;0.20;;;14.30;77.50;;;;;;5112750;28;20510;-73
2022/09/18 10:33:39;;;;;;;0.50;0.30;;;14.50;1.00;;;;;;5117459;28;20492;-72
2022/09/18 10:36:18;;;;;;;0.40;0.20;;;15.10;99.90;;;;;;5124003;27;20448;-73
2022/09/18 10:38:46;;;;;;;0.60;0.30;;;15.30;1.00;;;;;;5137398;27;20492;-73
2022/09/18 10:41:30;;;;;;;0.63;0.27;;;15.40;99.90;;;;;;5139707;27;20444;-72
2022/09/18 10:44:07;;;;;;;0.53;0.23;;;15.40;99.90;;;;;;5137248;27;20467;-72
2022/09/18 10:46:36;;;;;;;7.97;0.30;;;15.60;99.90;;;;;;5140526;27;20750;-72
2022/09/18 10:49:18;;;;;;;0.40;0.20;;;15.70;1.00;;;;;;5140785;27;20436;-72
2022/09/18 10:51:46;;;;;;;0.50;0.20;;;15.80;99.90;;;;;;5136493;27;20539;-72
2022/09/18 10:54:20;;;;;;;0.73;0.27;;;15.60;1.00;;;;;;5140000;27;20443;-72
2022/09/18 10:56:47;;;;;;;0.50;0.20;;;15.80;99.90;;;;;;5135728;27;20911;-72
2022/09/18 10:59:31;;;;;;;0.60;0.20;;;15.90;52.30;;;;;;5138687;27;20454;-72
2022/09/18 11:02:01;;;;;;;0.40;0.20;;;16.20;1.00;;;;;;5131430;27;20443;-72
2022/09/18 11:04:30;;;;;;;0.30;0.20;;;16.10;1.00;;;;;;5123587;27;20482;-73
2022/09/18 11:07:02;;;;;;;1.50;0.30;;;16.50;99.90;;;;;;5117221;28;20460;-73
2022/09/18 11:09:32;;;;;;;0.97;0.10;;;16.40;72.20;;;;;;5130081;27;20448;-73
2022/09/18 11:12:00;;;;;;;1.03;0.30;;;16.30;99.90;;;;;;5136414;27;21240;-73
2022/09/18 11:14:30;;;;;;;0.60;0.20;;;16.30;99.90;;;;;;5140023;27;20743;-73
2022/09/18 11:16:59;;;;;;;0.40;0.20;;;16.40;97.60;;;;;;5136080;27;20958;-73
2022/09/18 11:19:29;;;;;;;0.47;0.20;;;16.80;26.50;;;;;;5128209;27;20742;-73
2022/09/18 11:21:59;;;;;;;0.30;0.10;;;16.50;1.00;;;;;;5121818;27;20463;-73
2022/09/18 11:24:31;;;;;;;0.87;0.20;;;16.30;34.60;;;;;;5139554;27;20817;-73
2022/09/18 11:26:59;;;;;;;0.40;0.20;;;16.20;1.00;;;;;;5135747;27;20457;-73
2022/09/18 11:29:31;;;;;;;0.40;0.20;;;16.40;1.00;;;;;;5133117;27;20466;-74
2022/09/18 11:32:04;;;;;;;0.37;0.17;;;16.70;1.00;;;;;;5118339;27;20483;-73
2022/09/18 11:34:35;;;;;;;0.30;0.20;;;16.90;1.00;;;;;;5122074;27;20562;-73
2022/09/18 11:37:07;;;;;;;3.23;0.20;;;16.90;1.00;;;;;;5136782;27;20431;-73
2022/09/18 11:39:37;;;;;;;0.30;0.10;;;16.90;1.00;;;;;;5137418;27;20470;-73
2022/09/18 11:42:11;;;;;;;0.77;0.20;;;17.10;1.00;;;;;;5138205;27;20462;-73
2022/09/18 11:44:39;;;;;;;0.73;0.30;;;17.30;1.00;;;;;;5129005;27;20439;-73
2022/09/18 11:47:32;;;;;;;0.47;0.20;;;17.10;1.00;;;;;;5108496;27;20473;-75
2022/09/18 11:50:08;;;;;;;0.50;0.20;;;17.10;1.00;;;;;;5130086;27;20466;-75
2022/09/18 11:52:40;;;;;;;0.30;0.10;;;16.90;1.00;;;;;;5139305;27;20490;-74
2022/09/18 11:55:22;;;;;;;0.90;0.20;;;17.10;1.00;;;;;;5136578;27;20509;-75
2022/09/18 11:57:52;;;;;;;0.70;0.20;;;17.10;1.00;;;;;;5133883;27;20784;-74
2022/09/18 12:00:21;;;;;;;0.83;0.20;;;16.90;1.00;;;;;;5127692;27;20445;-75
2022/09/18 12:02:58;;;;;;;0.40;0.30;;;16.90;1.00;;;;;;5122099;27;20456;-75
2022/09/18 12:05:29;;;;;;;0.43;0.27;;;17.20;1.00;;;;;;5122828;27;20448;-75
2022/09/18 12:08:04;;;;;;;0.40;0.20;;;17.30;1.00;;;;;;5121349;27;20463;-73
2022/09/18 12:10:48;;;;;;;0.53;0.20;;;17.00;1.00;;;;;;5116128;28;20472;-72
2022/09/18 12:13:32;;;;;;;0.60;0.20;;;16.80;1.00;;;;;;5120633;27;20486;-72
2022/09/18 12:16:05;;;;;;;0.50;0.20;;;16.80;1.00;;;;;;5127116;27;20454;-72
2022/09/18 12:18:37;;;;;;;0.33;0.13;;;16.70;1.00;;;;;;5135009;27;20458;-73
2022/09/18 12:21:13;;;;;;;0.30;0.20;;;16.50;1.00;;;;;;5138544;27;20538;-73
2022/09/18 12:23:42;;;;;;;0.50;0.20;;;16.40;1.00;;;;;;5135501;27;20605;-73
2022/09/18 12:26:19;;;;;;;0.60;0.40;;;16.20;1.00;;;;;;5138534;27;20820;-74
2022/09/18 12:29:05;;;;;;;0.30;0.10;;;16.10;1.00;;;;;;5134777;27;20462;-73
2022/09/18 12:31:39;;;;;;;0.33;0.10;;;16.10;1.00;;;;;;5137223;27;20444;-73
2022/09/18 12:34:14;;;;;;;0.30;0.20;;;16.00;1.00;;;;;;5137176;27;20475;-75
2022/09/18 12:37:02;;;;;;;0.40;0.13;;;16.20;1.00;;;;;;5133386;27;20439;-72
2022/09/18 12:40:02;;;;;;;0.97;0.20;;;16.10;1.00;;;;;;5137211;27;20895;-73
2022/09/18 12:42:38;;;;;;;1.00;0.40;;;16.40;1.00;;;;;;5109024;27;20937;-72
2022/09/18 12:45:39;;;;;;;0.90;0.30;;;16.70;1.00;;;;;;5137142;27;20537;-75
2022/09/18 12:48:21;;;;;;;0.50;0.20;;;17.00;1.00;;;;;;5127986;27;20983;-73
2022/09/18 12:51:01;;;;;;;0.50;0.20;;;16.80;1.00;;;;;;5137021;27;20456;-74
2022/09/18 12:53:43;;;;;;;0.47;0.20;;;17.20;1.00;;;;;;5132879;27;20483;-73
2022/09/18 12:56:26;;;;;;;0.30;0.17;;;17.40;1.00;;;;;;5136938;27;20752;-73
2022/09/18 12:59:16;;;;;;;0.63;0.20;;;17.70;1.00;;;;;;5133737;27;20930;-72
2022/09/18 13:01:48;;;;;;;0.80;0.33;;;17.70;1.00;;;;;;5133060;27;20475;-72
2022/09/18 13:04:22;;;;;;;0.50;0.20;;;17.50;1.00;;;;;;5137402;27;20458;-73
2022/09/18 13:06:56;;;;;;;0.40;0.20;;;17.20;1.00;;;;;;5135150;27;20785;-73
2022/09/18 13:09:28;;;;;;;2.30;0.20;;;17.00;1.00;;;;;;5137666;27;20622;-73
2022/09/18 13:12:00;;;;;;;0.40;0.20;;;16.70;1.00;;;;;;5136056;27;20452;-72